sensor_id;sensor_type;location;lat;lon;timestamp;temperature;humidity
76787;DHT22;65739;51.482;5.702;2023-05-10T00:01:43;12.90;99.90
76787;DHT22;65739;51.482;5.702;2023-05-10T00:04:09;12.90;99.90
76787;DHT22;65739;51.482;5.702;2023-05-10T00:06:34;12.90;99.90
76787;DHT22;65739;51.482;5.702;2023-05-10T00:09:00;13.00;99.90
76787;DHT22;65739;51.482;5.702;2023-05-10T00:11:25;12.80;99.90
76787;DHT22;65739;51.482;5.702;2023-05-10T00:13:51;12.90;99.90
76787;DHT22;65739;51.482;5.702;2023-05-10T00:16:16;12.80;99.90
76787;DHT22;65739;51.482;5.702;2023-05-10T00:18:42;12.80;99.90
76787;DHT22;65739;51.482;5.702;2023-05-10T00:21:07;12.80;99.90
76787;DHT22;65739;51.482;5.702;2023-05-10T00:23:33;12.70;99.90
76787;DHT22;65739;51.482;5.702;2023-05-10T00:25:59;12.80;99.90
76787;DHT22;65739;51.482;5.702;2023-05-10T00:28:24;12.80;99.90
76787;DHT22;65739;51.482;5.702;2023-05-10T00:30:50;12.80;99.90
76787;DHT22;65739;51.482;5.702;2023-05-10T00:33:15;12.70;99.90
76787;DHT22;65739;51.482;5.702;2023-05-10T00:35:41;12.70;99.90
76787;DHT22;65739;51.482;5.702;2023-05-10T00:38:06;12.70;99.90
76787;DHT22;65739;51.482;5.702;2023-05-10T00:40:32;12.70;99.90
76787;DHT22;65739;51.482;5.702;2023-05-10T00:42:57;12.70;99.90
76787;DHT22;65739;51.482;5.702;2023-05-10T00:45:24;12.60;99.90
76787;DHT22;65739;51.482;5.702;2023-05-10T00:47:50;12.60;99.90
76787;DHT22;65739;51.482;5.702;2023-05-10T00:50:20;12.60;99.90
76787;DHT22;65739;51.482;5.702;2023-05-10T00:52:46;12.60;99.90
76787;DHT22;65739;51.482;5.702;2023-05-10T00:55:11;12.60;99.90
76787;DHT22;65739;51.482;5.702;2023-05-10T00:57:38;12.50;99.90
76787;DHT22;65739;51.482;5.702;2023-05-10T01:00:04;12.50;99.90
76787;DHT22;65739;51.482;5.702;2023-05-10T01:02:29;12.50;99.90
76787;DHT22;65739;51.482;5.702;2023-05-10T01:04:55;12.50;99.90
76787;DHT22;65739;51.482;5.702;2023-05-10T01:07:21;12.50;99.90
76787;DHT22;65739;51.482;5.702;2023-05-10T01:09:46;12.50;99.90
76787;DHT22;65739;51.482;5.702;2023-05-10T01:12:12;12.60;99.90
76787;DHT22;65739;51.482;5.702;2023-05-10T01:14:38;12.60;99.90
76787;DHT22;65739;51.482;5.702;2023-05-10T01:17:05;12.60;99.90
76787;DHT22;65739;51.482;5.702;2023-05-10T01:19:33;12.60;99.90
76787;DHT22;65739;51.482;5.702;2023-05-10T01:33:15;12.50;99.90
76787;DHT22;65739;51.482;5.702;2023-05-10T01:41:32;12.50;99.90
76787;DHT22;65739;51.482;5.702;2023-05-10T01:44:04;12.60;99.90
76787;DHT22;65739;51.482;5.702;2023-05-10T01:46:36;12.60;99.90
76787;DHT22;65739;51.482;5.702;2023-05-10T01:49:06;12.70;99.90
76787;DHT22;65739;51.482;5.702;2023-05-10T01:51:41;12.70;99.90
76787;DHT22;65739;51.482;5.702;2023-05-10T01:54:12;12.70;99.90
76787;DHT22;65739;51.482;5.702;2023-05-10T01:56:39;12.80;99.90
76787;DHT22;65739;51.482;5.702;2023-05-10T01:59:09;12.80;99.90
76787;DHT22;65739;51.482;5.702;2023-05-10T02:01:36;12.80;99.90
76787;DHT22;65739;51.482;5.702;2023-05-10T02:04:03;12.90;99.90
76787;DHT22;65739;51.482;5.702;2023-05-10T02:06:30;12.80;99.90
76787;DHT22;65739;51.482;5.702;2023-05-10T02:08:57;12.90;99.90
76787;DHT22;65739;51.482;5.702;2023-05-10T02:11:24;12.90;99.90
76787;DHT22;65739;51.482;5.702;2023-05-10T02:13:51;12.90;99.90
76787;DHT22;65739;51.482;5.702;2023-05-10T02:16:21;12.90;99.90
76787;DHT22;65739;51.482;5.702;2023-05-10T02:18:50;12.90;99.90
76787;DHT22;65739;51.482;5.702;2023-05-10T02:21:17;13.00;99.90
76787;DHT22;65739;51.482;5.702;2023-05-10T02:23:45;12.90;99.90
76787;DHT22;65739;51.482;5.702;2023-05-10T02:26:12;13.00;99.90
76787;DHT22;65739;51.482;5.702;2023-05-10T02:28:40;13.00;99.90
76787;DHT22;65739;51.482;5.702;2023-05-10T02:31:07;13.00;99.90
76787;DHT22;65739;51.482;5.702;2023-05-10T02:33:35;13.00;99.90
76787;DHT22;65739;51.482;5.702;2023-05-10T02:36:02;13.00;99.90
76787;DHT22;65739;51.482;5.702;2023-05-10T02:38:29;13.00;99.90
76787;DHT22;65739;51.482;5.702;2023-05-10T02:40:56;13.00;99.90
76787;DHT22;65739;51.482;5.702;2023-05-10T02:43:22;13.10;99.90
76787;DHT22;65739;51.482;5.702;2023-05-10T02:45:49;13.20;99.90
76787;DHT22;65739;51.482;5.702;2023-05-10T02:48:15;13.20;99.90
76787;DHT22;65739;51.482;5.702;2023-05-10T02:50:44;13.00;99.90
76787;DHT22;65739;51.482;5.702;2023-05-10T02:53:15;13.10;99.90
76787;DHT22;65739;51.482;5.702;2023-05-10T02:55:45;13.10;99.90
76787;DHT22;65739;51.482;5.702;2023-05-10T02:58:14;13.00;99.90
76787;DHT22;65739;51.482;5.702;2023-05-10T03:00:40;13.00;99.90
76787;DHT22;65739;51.482;5.702;2023-05-10T03:03:05;13.00;99.90
76787;DHT22;65739;51.482;5.702;2023-05-10T03:05:32;13.00;99.90
76787;DHT22;65739;51.482;5.702;2023-05-10T03:07:58;13.00;99.90
76787;DHT22;65739;51.482;5.702;2023-05-10T03:10:28;13.00;99.90
76787;DHT22;65739;51.482;5.702;2023-05-10T03:13:23;13.00;99.90
76787;DHT22;65739;51.482;5.702;2023-05-10T03:16:04;13.00;99.90
76787;DHT22;65739;51.482;5.702;2023-05-10T03:21:05;13.00;99.90
76787;DHT22;65739;51.482;5.702;2023-05-10T03:23:43;13.00;99.90
76787;DHT22;65739;51.482;5.702;2023-05-10T03:26:09;13.00;99.90
76787;DHT22;65739;51.482;5.702;2023-05-10T03:28:36;13.00;99.90
76787;DHT22;65739;51.482;5.702;2023-05-10T03:31:04;13.10;99.90
76787;DHT22;65739;51.482;5.702;2023-05-10T03:33:31;13.00;99.90
76787;DHT22;65739;51.482;5.702;2023-05-10T03:35:57;13.00;99.90
76787;DHT22;65739;51.482;5.702;2023-05-10T03:38:22;13.00;99.90
76787;DHT22;65739;51.482;5.702;2023-05-10T03:40:48;12.90;99.90
76787;DHT22;65739;51.482;5.702;2023-05-10T03:43:13;13.00;99.90
76787;DHT22;65739;51.482;5.702;2023-05-10T03:45:39;13.00;99.90
76787;DHT22;65739;51.482;5.702;2023-05-10T03:48:05;12.90;99.90
76787;DHT22;65739;51.482;5.702;2023-05-10T03:50:30;12.90;99.90
76787;DHT22;65739;51.482;5.702;2023-05-10T03:52:56;12.90;99.90
76787;DHT22;65739;51.482;5.702;2023-05-10T03:55:23;12.90;99.90
76787;DHT22;65739;51.482;5.702;2023-05-10T03:57:48;12.90;99.90
76787;DHT22;65739;51.482;5.702;2023-05-10T04:00:15;12.90;99.90
76787;DHT22;65739;51.482;5.702;2023-05-10T04:02:40;12.90;99.90
76787;DHT22;65739;51.482;5.702;2023-05-10T04:05:06;12.90;99.90
76787;DHT22;65739;51.482;5.702;2023-05-10T04:07:32;12.90;99.90
76787;DHT22;65739;51.482;5.702;2023-05-10T04:09:57;12.90;99.90
76787;DHT22;65739;51.482;5.702;2023-05-10T04:12:23;12.90;99.90
76787;DHT22;65739;51.482;5.702;2023-05-10T04:14:49;12.90;99.90
76787;DHT22;65739;51.482;5.702;2023-05-10T04:17:14;12.90;99.90
76787;DHT22;65739;51.482;5.702;2023-05-10T04:19:40;12.90;99.90
76787;DHT22;65739;51.482;5.702;2023-05-10T04:22:05;13.00;99.90
76787;DHT22;65739;51.482;5.702;2023-05-10T04:24:31;12.90;99.90
76787;DHT22;65739;51.482;5.702;2023-05-10T04:26:57;12.90;99.90
76787;DHT22;65739;51.482;5.702;2023-05-10T04:29:22;12.90;99.90
76787;DHT22;65739;51.482;5.702;2023-05-10T04:31:48;12.90;99.90
76787;DHT22;65739;51.482;5.702;2023-05-10T04:34:14;12.90;99.90
76787;DHT22;65739;51.482;5.702;2023-05-10T04:36:42;12.90;99.90
76787;DHT22;65739;51.482;5.702;2023-05-10T04:39:10;12.90;99.90
76787;DHT22;65739;51.482;5.702;2023-05-10T04:41:37;12.90;99.90
76787;DHT22;65739;51.482;5.702;2023-05-10T04:44:03;12.90;99.90
76787;DHT22;65739;51.482;5.702;2023-05-10T04:46:29;13.00;99.90
76787;DHT22;65739;51.482;5.702;2023-05-10T04:48:56;13.00;99.90
76787;DHT22;65739;51.482;5.702;2023-05-10T04:51:22;12.90;99.90
76787;DHT22;65739;51.482;5.702;2023-05-10T04:53:48;13.00;99.90
76787;DHT22;65739;51.482;5.702;2023-05-10T04:56:16;13.00;99.90
76787;DHT22;65739;51.482;5.702;2023-05-10T04:58:42;13.00;99.90
76787;DHT22;65739;51.482;5.702;2023-05-10T05:01:08;12.90;99.90
76787;DHT22;65739;51.482;5.702;2023-05-10T05:03:33;12.90;99.90
76787;DHT22;65739;51.482;5.702;2023-05-10T05:05:59;12.90;99.90
76787;DHT22;65739;51.482;5.702;2023-05-10T05:08:24;12.90;99.90
76787;DHT22;65739;51.482;5.702;2023-05-10T05:10:50;12.90;99.90
76787;DHT22;65739;51.482;5.702;2023-05-10T05:13:16;12.90;99.90
76787;DHT22;65739;51.482;5.702;2023-05-10T05:15:41;12.90;99.90
76787;DHT22;65739;51.482;5.702;2023-05-10T05:18:07;12.90;99.90
76787;DHT22;65739;51.482;5.702;2023-05-10T05:20:33;12.90;99.90
76787;DHT22;65739;51.482;5.702;2023-05-10T05:22:59;12.80;99.90
76787;DHT22;65739;51.482;5.702;2023-05-10T05:25:25;12.80;99.90
76787;DHT22;65739;51.482;5.702;2023-05-10T05:27:51;12.80;99.90
76787;DHT22;65739;51.482;5.702;2023-05-10T05:30:16;12.80;99.90
76787;DHT22;65739;51.482;5.702;2023-05-10T05:32:42;12.90;99.90
76787;DHT22;65739;51.482;5.702;2023-05-10T05:35:08;12.80;99.90
76787;DHT22;65739;51.482;5.702;2023-05-10T05:37:33;12.80;99.90
76787;DHT22;65739;51.482;5.702;2023-05-10T05:39:59;12.70;99.90
76787;DHT22;65739;51.482;5.702;2023-05-10T05:42:26;12.80;99.90
76787;DHT22;65739;51.482;5.702;2023-05-10T05:44:52;12.90;99.90
76787;DHT22;65739;51.482;5.702;2023-05-10T05:47:17;12.90;99.90
76787;DHT22;65739;51.482;5.702;2023-05-10T05:49:43;13.00;99.90
76787;DHT22;65739;51.482;5.702;2023-05-10T05:52:11;13.00;99.90
76787;DHT22;65739;51.482;5.702;2023-05-10T05:54:36;13.10;99.90
76787;DHT22;65739;51.482;5.702;2023-05-10T05:57:02;13.00;99.90
76787;DHT22;65739;51.482;5.702;2023-05-10T05:59:28;13.00;99.90
76787;DHT22;65739;51.482;5.702;2023-05-10T06:01:54;13.00;99.90
76787;DHT22;65739;51.482;5.702;2023-05-10T06:04:20;13.00;99.90
76787;DHT22;65739;51.482;5.702;2023-05-10T06:06:45;13.10;99.90
76787;DHT22;65739;51.482;5.702;2023-05-10T06:09:11;13.20;99.90
76787;DHT22;65739;51.482;5.702;2023-05-10T06:11:37;13.20;99.90
76787;DHT22;65739;51.482;5.702;2023-05-10T06:14:04;13.20;99.90
76787;DHT22;65739;51.482;5.702;2023-05-10T06:16:30;13.10;99.90
76787;DHT22;65739;51.482;5.702;2023-05-10T06:18:56;13.00;99.90
76787;DHT22;65739;51.482;5.702;2023-05-10T06:21:21;13.10;99.90
76787;DHT22;65739;51.482;5.702;2023-05-10T06:23:47;13.20;99.90
76787;DHT22;65739;51.482;5.702;2023-05-10T06:26:13;13.10;99.90
76787;DHT22;65739;51.482;5.702;2023-05-10T06:28:39;13.10;99.90
76787;DHT22;65739;51.482;5.702;2023-05-10T06:31:05;13.10;99.90
76787;DHT22;65739;51.482;5.702;2023-05-10T06:33:30;13.20;99.90
76787;DHT22;65739;51.482;5.702;2023-05-10T06:35:56;13.20;99.90
76787;DHT22;65739;51.482;5.702;2023-05-10T06:38:22;13.20;99.90
76787;DHT22;65739;51.482;5.702;2023-05-10T06:40:48;13.20;99.90
76787;DHT22;65739;51.482;5.702;2023-05-10T06:43:13;13.20;99.90
76787;DHT22;65739;51.482;5.702;2023-05-10T06:45:39;13.20;99.90
76787;DHT22;65739;51.482;5.702;2023-05-10T06:48:05;13.20;99.90
76787;DHT22;65739;51.482;5.702;2023-05-10T06:50:30;13.20;99.90
76787;DHT22;65739;51.482;5.702;2023-05-10T06:52:56;13.20;99.90
76787;DHT22;65739;51.482;5.702;2023-05-10T06:55:21;13.20;99.90
76787;DHT22;65739;51.482;5.702;2023-05-10T06:57:47;13.30;99.90
76787;DHT22;65739;51.482;5.702;2023-05-10T07:00:13;13.20;99.90
76787;DHT22;65739;51.482;5.702;2023-05-10T07:02:39;13.30;99.90
76787;DHT22;65739;51.482;5.702;2023-05-10T07:05:05;13.30;99.90
76787;DHT22;65739;51.482;5.702;2023-05-10T07:07:31;13.40;99.90
76787;DHT22;65739;51.482;5.702;2023-05-10T07:09:56;13.40;99.90
76787;DHT22;65739;51.482;5.702;2023-05-10T07:12:23;13.40;99.90
76787;DHT22;65739;51.482;5.702;2023-05-10T07:14:48;13.50;99.90
76787;DHT22;65739;51.482;5.702;2023-05-10T07:17:14;13.50;99.90
76787;DHT22;65739;51.482;5.702;2023-05-10T07:19:40;13.60;99.90
76787;DHT22;65739;51.482;5.702;2023-05-10T07:22:05;13.60;99.90
76787;DHT22;65739;51.482;5.702;2023-05-10T07:24:33;13.60;99.90
76787;DHT22;65739;51.482;5.702;2023-05-10T07:26:58;13.60;99.90
76787;DHT22;65739;51.482;5.702;2023-05-10T07:29:24;13.60;99.90
76787;DHT22;65739;51.482;5.702;2023-05-10T07:31:49;13.60;99.90
76787;DHT22;65739;51.482;5.702;2023-05-10T07:34:15;13.60;99.90
76787;DHT22;65739;51.482;5.702;2023-05-10T07:36:41;13.60;99.90
76787;DHT22;65739;51.482;5.702;2023-05-10T07:39:07;13.60;99.90
76787;DHT22;65739;51.482;5.702;2023-05-10T07:41:32;13.60;99.90
76787;DHT22;65739;51.482;5.702;2023-05-10T07:43:58;13.80;99.90
76787;DHT22;65739;51.482;5.702;2023-05-10T07:46:24;13.90;99.90
76787;DHT22;65739;51.482;5.702;2023-05-10T07:48:49;13.90;99.90
76787;DHT22;65739;51.482;5.702;2023-05-10T07:51:15;14.00;99.90
76787;DHT22;65739;51.482;5.702;2023-05-10T07:53:40;14.10;99.90
76787;DHT22;65739;51.482;5.702;2023-05-10T07:56:26;14.20;99.90
76787;DHT22;65739;51.482;5.702;2023-05-10T07:59:00;14.10;99.90
76787;DHT22;65739;51.482;5.702;2023-05-10T08:01:26;13.90;99.90
76787;DHT22;65739;51.482;5.702;2023-05-10T08:03:55;13.90;99.90
76787;DHT22;65739;51.482;5.702;2023-05-10T08:06:20;13.90;99.90
76787;DHT22;65739;51.482;5.702;2023-05-10T08:08:47;13.90;99.90
76787;DHT22;65739;51.482;5.702;2023-05-10T08:11:17;13.80;99.90
76787;DHT22;65739;51.482;5.702;2023-05-10T08:13:44;13.90;99.90
76787;DHT22;65739;51.482;5.702;2023-05-10T08:16:10;13.90;99.90
76787;DHT22;65739;51.482;5.702;2023-05-10T08:18:36;13.90;99.90
76787;DHT22;65739;51.482;5.702;2023-05-10T08:21:01;13.90;99.90
76787;DHT22;65739;51.482;5.702;2023-05-10T08:23:27;13.80;99.90
76787;DHT22;65739;51.482;5.702;2023-05-10T08:25:53;13.90;99.90
76787;DHT22;65739;51.482;5.702;2023-05-10T08:28:18;13.90;99.90
76787;DHT22;65739;51.482;5.702;2023-05-10T08:30:44;13.90;99.90
76787;DHT22;65739;51.482;5.702;2023-05-10T08:33:09;13.80;99.90
76787;DHT22;65739;51.482;5.702;2023-05-10T08:35:38;13.80;99.90
76787;DHT22;65739;51.482;5.702;2023-05-10T08:38:03;13.70;99.90
76787;DHT22;65739;51.482;5.702;2023-05-10T08:40:29;13.60;99.90
76787;DHT22;65739;51.482;5.702;2023-05-10T08:43:21;13.60;99.90
76787;DHT22;65739;51.482;5.702;2023-05-10T08:45:49;13.70;99.90
76787;DHT22;65739;51.482;5.702;2023-05-10T08:48:15;13.80;99.90
76787;DHT22;65739;51.482;5.702;2023-05-10T08:50:42;13.60;99.90
76787;DHT22;65739;51.482;5.702;2023-05-10T08:53:12;13.70;99.90
76787;DHT22;65739;51.482;5.702;2023-05-10T08:55:39;13.70;99.90
76787;DHT22;65739;51.482;5.702;2023-05-10T08:58:06;13.60;99.90
76787;DHT22;65739;51.482;5.702;2023-05-10T09:00:32;13.60;99.90
76787;DHT22;65739;51.482;5.702;2023-05-10T09:02:59;13.50;99.90
76787;DHT22;65739;51.482;5.702;2023-05-10T09:05:24;13.60;99.90
76787;DHT22;65739;51.482;5.702;2023-05-10T09:07:50;13.70;99.90
76787;DHT22;65739;51.482;5.702;2023-05-10T09:10:16;13.80;99.90
76787;DHT22;65739;51.482;5.702;2023-05-10T09:12:43;13.80;99.90
76787;DHT22;65739;51.482;5.702;2023-05-10T09:15:09;13.90;99.90
76787;DHT22;65739;51.482;5.702;2023-05-10T09:17:36;13.90;99.90
76787;DHT22;65739;51.482;5.702;2023-05-10T09:20:03;13.90;99.90
76787;DHT22;65739;51.482;5.702;2023-05-10T09:22:30;14.00;99.90
76787;DHT22;65739;51.482;5.702;2023-05-10T09:27:35;14.30;99.90
76787;DHT22;65739;51.482;5.702;2023-05-10T09:30:01;14.40;99.90
76787;DHT22;65739;51.482;5.702;2023-05-10T09:35:15;14.60;99.90
76787;DHT22;65739;51.482;5.702;2023-05-10T09:37:42;14.60;99.90
76787;DHT22;65739;51.482;5.702;2023-05-10T09:40:11;14.80;99.90
76787;DHT22;65739;51.482;5.702;2023-05-10T09:42:37;15.00;99.90
76787;DHT22;65739;51.482;5.702;2023-05-10T09:45:06;15.20;99.90
76787;DHT22;65739;51.482;5.702;2023-05-10T09:47:36;15.40;99.90
76787;DHT22;65739;51.482;5.702;2023-05-10T09:50:03;15.70;99.90
76787;DHT22;65739;51.482;5.702;2023-05-10T09:52:50;15.90;99.90
76787;DHT22;65739;51.482;5.702;2023-05-10T09:55:20;16.40;99.90
76787;DHT22;65739;51.482;5.702;2023-05-10T09:57:47;16.50;99.90
76787;DHT22;65739;51.482;5.702;2023-05-10T10:00:18;16.40;99.90
76787;DHT22;65739;51.482;5.702;2023-05-10T10:02:47;16.10;99.90
76787;DHT22;65739;51.482;5.702;2023-05-10T10:05:13;16.20;99.90
76787;DHT22;65739;51.482;5.702;2023-05-10T10:07:39;16.10;99.90
76787;DHT22;65739;51.482;5.702;2023-05-10T10:10:05;16.00;99.90
76787;DHT22;65739;51.482;5.702;2023-05-10T10:12:31;16.10;99.90
76787;DHT22;65739;51.482;5.702;2023-05-10T10:14:57;16.20;99.90
76787;DHT22;65739;51.482;5.702;2023-05-10T10:17:26;16.40;99.90
76787;DHT22;65739;51.482;5.702;2023-05-10T10:19:53;16.70;99.90
76787;DHT22;65739;51.482;5.702;2023-05-10T10:22:19;17.10;99.90
76787;DHT22;65739;51.482;5.702;2023-05-10T10:24:45;17.80;99.90
76787;DHT22;65739;51.482;5.702;2023-05-10T10:27:23;17.80;99.90
76787;DHT22;65739;51.482;5.702;2023-05-10T10:30:04;17.80;99.90
76787;DHT22;65739;51.482;5.702;2023-05-10T10:35:31;17.90;99.90
76787;DHT22;65739;51.482;5.702;2023-05-10T10:37:57;17.70;99.90
76787;DHT22;65739;51.482;5.702;2023-05-10T10:40:27;17.50;99.90
76787;DHT22;65739;51.482;5.702;2023-05-10T10:42:54;17.10;99.90
76787;DHT22;65739;51.482;5.702;2023-05-10T10:45:20;16.90;99.90
76787;DHT22;65739;51.482;5.702;2023-05-10T10:47:46;16.50;99.90
76787;DHT22;65739;51.482;5.702;2023-05-10T10:50:12;16.30;99.90
76787;DHT22;65739;51.482;5.702;2023-05-10T10:52:45;16.10;99.90
76787;DHT22;65739;51.482;5.702;2023-05-10T10:55:18;16.20;99.90
76787;DHT22;65739;51.482;5.702;2023-05-10T11:00:30;16.60;99.90
76787;DHT22;65739;51.482;5.702;2023-05-10T11:03:06;16.90;99.90
76787;DHT22;65739;51.482;5.702;2023-05-10T11:05:39;16.90;99.90
76787;DHT22;65739;51.482;5.702;2023-05-10T11:13:41;17.70;99.90
76787;DHT22;65739;51.482;5.702;2023-05-10T11:16:23;18.20;99.90
76787;DHT22;65739;51.482;5.702;2023-05-10T11:19:01;18.90;99.90
76787;DHT22;65739;51.482;5.702;2023-05-10T11:21:28;19.40;99.90
76787;DHT22;65739;51.482;5.702;2023-05-10T11:23:55;19.50;99.90
76787;DHT22;65739;51.482;5.702;2023-05-10T11:26:25;20.00;99.90
76787;DHT22;65739;51.482;5.702;2023-05-10T11:28:53;19.60;99.90
76787;DHT22;65739;51.482;5.702;2023-05-10T11:31:21;18.90;99.90
76787;DHT22;65739;51.482;5.702;2023-05-10T11:33:49;18.50;99.90
76787;DHT22;65739;51.482;5.702;2023-05-10T11:36:16;18.30;99.90
76787;DHT22;65739;51.482;5.702;2023-05-10T11:38:42;17.90;99.90
76787;DHT22;65739;51.482;5.702;2023-05-10T11:41:09;17.60;99.90
76787;DHT22;65739;51.482;5.702;2023-05-10T11:43:35;17.10;99.90
76787;DHT22;65739;51.482;5.702;2023-05-10T11:46:04;16.90;99.90
76787;DHT22;65739;51.482;5.702;2023-05-10T11:48:31;17.10;99.90
76787;DHT22;65739;51.482;5.702;2023-05-10T11:50:57;17.20;99.90
76787;DHT22;65739;51.482;5.702;2023-05-10T11:53:25;17.30;99.90
76787;DHT22;65739;51.482;5.702;2023-05-10T11:55:51;17.30;99.90
76787;DHT22;65739;51.482;5.702;2023-05-10T11:58:18;17.40;99.90
76787;DHT22;65739;51.482;5.702;2023-05-10T12:00:44;17.40;99.90
76787;DHT22;65739;51.482;5.702;2023-05-10T12:03:11;17.50;99.90
76787;DHT22;65739;51.482;5.702;2023-05-10T12:05:37;17.80;99.90
76787;DHT22;65739;51.482;5.702;2023-05-10T12:08:19;18.50;99.90
76787;DHT22;65739;51.482;5.702;2023-05-10T12:10:45;18.90;99.90
76787;DHT22;65739;51.482;5.702;2023-05-10T12:13:12;19.00;99.90
76787;DHT22;65739;51.482;5.702;2023-05-10T12:15:41;18.90;99.90
76787;DHT22;65739;51.482;5.702;2023-05-10T12:18:11;18.80;99.90
76787;DHT22;65739;51.482;5.702;2023-05-10T12:20:37;18.70;99.90
76787;DHT22;65739;51.482;5.702;2023-05-10T12:23:03;18.30;99.90
76787;DHT22;65739;51.482;5.702;2023-05-10T12:25:33;18.00;99.90
76787;DHT22;65739;51.482;5.702;2023-05-10T12:28:00;17.80;99.90
76787;DHT22;65739;51.482;5.702;2023-05-10T12:30:29;17.90;99.90
76787;DHT22;65739;51.482;5.702;2023-05-10T12:33:01;17.50;99.90
76787;DHT22;65739;51.482;5.702;2023-05-10T12:35:30;17.00;99.90
76787;DHT22;65739;51.482;5.702;2023-05-10T12:37:55;16.60;99.90
76787;DHT22;65739;51.482;5.702;2023-05-10T12:40:21;16.20;99.90
76787;DHT22;65739;51.482;5.702;2023-05-10T12:42:47;16.10;99.90
76787;DHT22;65739;51.482;5.702;2023-05-10T12:45:14;15.70;99.90
76787;DHT22;65739;51.482;5.702;2023-05-10T12:47:40;15.50;99.90
76787;DHT22;65739;51.482;5.702;2023-05-10T12:50:06;15.30;99.90
76787;DHT22;65739;51.482;5.702;2023-05-10T12:52:32;15.20;99.90
76787;DHT22;65739;51.482;5.702;2023-05-10T12:54:58;15.20;99.90
76787;DHT22;65739;51.482;5.702;2023-05-10T12:57:24;15.20;99.90
76787;DHT22;65739;51.482;5.702;2023-05-10T12:59:50;15.20;99.90
76787;DHT22;65739;51.482;5.702;2023-05-10T13:02:16;15.30;99.90
76787;DHT22;65739;51.482;5.702;2023-05-10T13:04:46;15.40;99.90
76787;DHT22;65739;51.482;5.702;2023-05-10T13:07:12;15.50;99.90
76787;DHT22;65739;51.482;5.702;2023-05-10T13:09:37;15.50;99.90
76787;DHT22;65739;51.482;5.702;2023-05-10T13:12:03;15.60;99.90
76787;DHT22;65739;51.482;5.702;2023-05-10T13:14:31;15.40;99.90
76787;DHT22;65739;51.482;5.702;2023-05-10T13:16:56;15.60;99.90
76787;DHT22;65739;51.482;5.702;2023-05-10T13:19:22;15.70;99.90
76787;DHT22;65739;51.482;5.702;2023-05-10T13:21:48;15.80;99.90
76787;DHT22;65739;51.482;5.702;2023-05-10T13:24:13;16.00;99.90
76787;DHT22;65739;51.482;5.702;2023-05-10T13:26:42;16.00;99.90
76787;DHT22;65739;51.482;5.702;2023-05-10T13:29:08;16.20;99.90
76787;DHT22;65739;51.482;5.702;2023-05-10T13:31:34;16.70;99.90
76787;DHT22;65739;51.482;5.702;2023-05-10T13:33:59;17.10;99.90
76787;DHT22;65739;51.482;5.702;2023-05-10T13:36:25;17.40;99.90
76787;DHT22;65739;51.482;5.702;2023-05-10T13:38:51;17.50;99.90
76787;DHT22;65739;51.482;5.702;2023-05-10T13:41:16;17.30;99.90
76787;DHT22;65739;51.482;5.702;2023-05-10T13:43:42;17.00;99.90
76787;DHT22;65739;51.482;5.702;2023-05-10T13:46:07;16.90;99.90
76787;DHT22;65739;51.482;5.702;2023-05-10T13:48:33;16.80;99.90
76787;DHT22;65739;51.482;5.702;2023-05-10T13:50:58;16.60;99.90
76787;DHT22;65739;51.482;5.702;2023-05-10T13:53:24;16.50;99.90
76787;DHT22;65739;51.482;5.702;2023-05-10T13:55:49;16.40;99.90
76787;DHT22;65739;51.482;5.702;2023-05-10T13:58:15;16.20;99.90
76787;DHT22;65739;51.482;5.702;2023-05-10T14:00:41;16.00;99.90
76787;DHT22;65739;51.482;5.702;2023-05-10T14:03:07;15.80;99.90
76787;DHT22;65739;51.482;5.702;2023-05-10T14:05:34;15.80;99.90
76787;DHT22;65739;51.482;5.702;2023-05-10T14:07:59;15.80;99.90
76787;DHT22;65739;51.482;5.702;2023-05-10T14:10:25;15.80;99.90
76787;DHT22;65739;51.482;5.702;2023-05-10T14:12:50;15.90;99.90
76787;DHT22;65739;51.482;5.702;2023-05-10T14:15:16;16.10;99.90
76787;DHT22;65739;51.482;5.702;2023-05-10T14:17:42;16.00;99.90
76787;DHT22;65739;51.482;5.702;2023-05-10T14:20:08;16.00;99.90
76787;DHT22;65739;51.482;5.702;2023-05-10T14:22:34;15.90;99.90
76787;DHT22;65739;51.482;5.702;2023-05-10T14:24:59;15.70;99.90
76787;DHT22;65739;51.482;5.702;2023-05-10T14:27:25;15.60;99.90
76787;DHT22;65739;51.482;5.702;2023-05-10T14:29:51;15.30;99.90
76787;DHT22;65739;51.482;5.702;2023-05-10T14:32:17;15.10;99.90
76787;DHT22;65739;51.482;5.702;2023-05-10T14:34:42;15.00;99.90
76787;DHT22;65739;51.482;5.702;2023-05-10T14:37:10;14.90;99.90
76787;DHT22;65739;51.482;5.702;2023-05-10T14:39:36;14.80;99.90
76787;DHT22;65739;51.482;5.702;2023-05-10T14:42:02;14.70;99.90
76787;DHT22;65739;51.482;5.702;2023-05-10T14:44:28;14.60;99.90
76787;DHT22;65739;51.482;5.702;2023-05-10T14:46:53;14.60;99.90
76787;DHT22;65739;51.482;5.702;2023-05-10T14:49:20;14.40;99.90
76787;DHT22;65739;51.482;5.702;2023-05-10T14:51:48;14.30;99.90
76787;DHT22;65739;51.482;5.702;2023-05-10T14:54:13;14.20;99.90
76787;DHT22;65739;51.482;5.702;2023-05-10T14:56:41;14.10;99.90
76787;DHT22;65739;51.482;5.702;2023-05-10T14:59:07;14.00;99.90
76787;DHT22;65739;51.482;5.702;2023-05-10T15:01:33;14.20;99.90
76787;DHT22;65739;51.482;5.702;2023-05-10T15:04:05;14.20;99.90
76787;DHT22;65739;51.482;5.702;2023-05-10T15:06:31;14.40;99.90
76787;DHT22;65739;51.482;5.702;2023-05-10T15:08:57;14.40;99.90
76787;DHT22;65739;51.482;5.702;2023-05-10T15:11:23;14.60;99.90
76787;DHT22;65739;51.482;5.702;2023-05-10T15:13:48;14.70;99.90
76787;DHT22;65739;51.482;5.702;2023-05-10T15:16:14;15.10;99.90
76787;DHT22;65739;51.482;5.702;2023-05-10T15:18:39;14.70;99.90
76787;DHT22;65739;51.482;5.702;2023-05-10T15:21:05;14.80;99.90
76787;DHT22;65739;51.482;5.702;2023-05-10T15:23:30;14.70;99.90
76787;DHT22;65739;51.482;5.702;2023-05-10T15:25:57;14.70;99.90
76787;DHT22;65739;51.482;5.702;2023-05-10T15:28:22;14.80;99.90
76787;DHT22;65739;51.482;5.702;2023-05-10T15:30:48;14.90;99.90
76787;DHT22;65739;51.482;5.702;2023-05-10T15:33:14;14.90;99.90
76787;DHT22;65739;51.482;5.702;2023-05-10T15:35:39;14.90;99.90
76787;DHT22;65739;51.482;5.702;2023-05-10T15:38:06;15.00;99.90
76787;DHT22;65739;51.482;5.702;2023-05-10T15:40:32;14.90;99.90
76787;DHT22;65739;51.482;5.702;2023-05-10T15:42:57;15.00;99.90
76787;DHT22;65739;51.482;5.702;2023-05-10T15:45:23;14.90;99.90
76787;DHT22;65739;51.482;5.702;2023-05-10T15:47:49;14.90;99.90
76787;DHT22;65739;51.482;5.702;2023-05-10T15:50:14;14.90;99.90
76787;DHT22;65739;51.482;5.702;2023-05-10T15:52:41;14.90;99.90
76787;DHT22;65739;51.482;5.702;2023-05-10T15:55:08;15.00;99.90
76787;DHT22;65739;51.482;5.702;2023-05-10T15:57:41;15.00;99.90
76787;DHT22;65739;51.482;5.702;2023-05-10T16:00:08;15.00;99.90
76787;DHT22;65739;51.482;5.702;2023-05-10T16:02:34;14.90;99.90
76787;DHT22;65739;51.482;5.702;2023-05-10T16:05:00;14.90;99.90